BKDO2: Broken Bow Lake

Data processed at Sat Dec 09 2017 23:08


All information presented herein is the property of the government of the United States of America and may be revised or deleted at any time without prior notice.
Dissemination of this information without the expressed written consent of the Public Affairs Office, Tulsa District U.S. Army Corps of Engineers is strictly prohibited.
These data are gathered electronically and, as presented, have not undergone any form of quality control. These data are not guaranteed to be valid or correct.
Go to home page.
Go to station list.

Upstream stations:

Downstream station:
Previous Day
Next Day
Current Day
    
SHEF ID:       BKDO2     Broken Bow Lake
STATION TYPE:  RESERVOIR
Normal Pool:  Bottom =   559.00, Top =   599.50

               PRECIP ELEVATION   STORAGE   TW-ELEV    INFLOW   RELEASE  AIR-TEMP  WIND-DIRWIND-SPEED REL-HUMID SOLAR-RAD   VOLTAGE  BAT-LOAD
                   in        ft     ac-ft        ft       cfs       cfs         F       deg       mph         %      W/m2      volt      volt
              Ccp-Rev   Ccp-Rev   Ccp-Rev   Ccp-Rev  Regi-Rev  Regi-Rev   Ccp-Rev   Ccp-Rev   Ccp-Rev   Ccp-Rev   Ccp-Rev   Ccp-Rev   Ccp-Rev
(US/Central)
12/07 00:00      0.00    590.66    798821    401.05        39        92     47.03    304.60      1.70     50.55      0.00     12.87     12.48
12/07 01:00      0.00    590.65    798696    401.05        32        92     46.26    108.20      0.54     55.61      0.00     12.84     12.42
12/07 02:00      0.00    590.65    798696    401.05        25        92     36.81    150.00      2.59     73.14      0.00     12.82     12.42
12/07 03:00      0.00    590.65    798696    401.05       132        92     35.49    152.60      2.22     73.26      0.00     12.80     12.42
12/07 04:00      0.00    590.64    798572    401.05       169        92     34.50    181.00      0.25     79.30      0.00     12.79     12.36
12/07 05:00      0.00    590.66    798821    401.05       168        92     36.05    297.80      0.33     75.76      0.00     12.78     12.36
12/07 06:00      0.00    590.67    798945    401.05       164        92     41.52    302.10      2.15     60.80      0.00     12.78     12.36
12/07 07:00      0.00    590.68    799069    401.05       160        92     39.56    302.70      3.92     64.90      0.00     12.78     12.30
12/07 08:00      0.00    590.69    799193    401.05        42        92     38.12    300.50      5.19     64.95     33.00     12.79     12.36
12/07 09:00      0.00    590.68    799069    401.05         5        92     37.15    297.60      4.56     57.51    118.00     13.02     12.36
12/07 10:00      0.00    590.68    799069    401.04         1        92     36.70     95.90      0.98     56.35    146.00     13.31     12.60
12/07 11:00      0.00    590.67    798945    401.05         1        92     36.37    305.50      2.99     50.61    271.00     13.56     12.89
12/07 12:00      0.00    590.66    798821    401.06         1        92     36.48    306.20      3.86     48.66    273.00     13.61     13.12
12/07 13:00      0.00    590.67    798945    401.06         3        92     37.15    294.70      1.44     44.75    232.00     13.65     13.12
12/07 14:00      0.00    590.66    798821    401.05         5        92     36.70    296.90      3.21     43.65    186.00     13.66     13.12
12/07 15:00      0.00    590.65    798696    401.05         4        92     36.81    304.20      2.81     43.59    182.00     13.78     13.12
12/07 16:00      0.00    590.66    798821    401.05         4        92     38.44    305.30      3.02     48.10    152.00     13.51     13.24
12/07 17:00      0.00    590.61    798200    403.87         0        92     36.27    306.00      5.16     43.71     18.00     13.18     13.07
12/07 18:00      0.00    590.59    797952    405.40         0        92     35.60    304.50      4.64     43.89      0.00     13.12     12.77
12/07 19:00      0.00    590.55    797455    405.38         0        92     35.06    305.20      5.06     44.76      0.00     13.08     12.71
12/07 20:00      0.00    590.50    796835    405.39         0        92     33.73    303.70      4.91     42.19      0.00     13.05     12.65
12/07 21:00      0.00    590.49    796711    403.07         6        92     34.18    304.60      5.83     45.60      0.00     13.01     12.60
12/07 22:00      0.00    590.46    796339    401.05         4        92     33.62    299.50      4.18     48.77      0.00     13.00     12.60
12/07 23:00      0.00    590.46    796339    401.05         2        92     33.30    303.10      3.97     51.16      1.00     12.99     12.60